Aérodrome :
LOGIN :

S'inscrire | Disclaimer

   EN    FR    IT 

 










Légende :    VFR   VFR Marginal   IFR   IFR Intensif   IFR Très Intensif
Visi : 
Plafond : 
>= 8 km
>= 3000ft
5 à 8 km
1000 à 3000 ft
1500m à 5 km
500 à 1000 ft
800 à 1500m
200 à 500 ft
< 800m
< 200 ft
Symboles :   Orages  Brouillard  Fortes neiges  Fortes précipitations  Vent > 20 kt
SIGMETs :   Divers  Orages  Givrage  Turbulence  Onde Orograph.  Cendres Volcan.







- Altitude de l'aérodrome : 288 ft
- Code IATA : BZZ


EGVN - RAF Brize Norton

DERNIER METAR :
  • 160650Z 23003KT 7000 RA FEW010 SCT035 BKN060 16/15 Q1011 TEMPO 4000 RA SCT010

METARs EXPIRÉS :
  • 160633Z 22004KT 6000 RA FEW005 BKN010 BKN040 16/15 Q1012 GRN TEMPO 3000 RA SCT005 YLO1
  • 160537Z 22010KT 3000 RA BKN005 BKN012 17/16 Q1012 YLO1 TEMPO 2000 +RA YLO2
  • 160516Z 21008KT 5000 RA BKN007 BKN015 17/16 Q1011 GRN TEMPO 4000 BKN006 YLO1
  • 160450Z 21009KT 9999 BKN007 OVC012 17/16 Q1011 GRN TEMPO 4000 RA BKN006 YLO1

TAF AMD TAF EGVN
Valide du 16 à 07h jusqu'au 17 à 06h UTC


160728Z 1607/1706 23012KT 9999 -RA FEW010 BKN035
TEMPO 1607/1610 4000 RA BKN008
PROB40
TEMPO 1607/1610 2000 +RA BKN004
Pas de NOTAMs connus pour ce terrain.



MET'MAP, la Météo Aéronautique d'un coup d'oeil ! - Copyright ORBIFLY Décembre 2007 - Disclaimer

ORBIFLY MET'MAP TEAM :

Programmation & Développement : Alexandra Zaïnal
Conception & Développement : Baudouin d'Aumeries
Co-Programmation & Développement : Marc-Olivier Méhu
Soutien technique & logistique : Manuel Goepfert

Contact : metmap@orbifly.com




SOURCES & CREDITS :

   NOAA